Time;durP1;ratioP1;P1;durP2;ratioP2;P2;SDS_P1;SDS_P2;PMS_P1;PMS_P2;Temp;Humidity;BMP_temperature;BMP_pressure;BME280_temperature;BME280_humidity;BME280_pressure;Samples;Min_cycle;Max_cycle;Signal;HPM_P1;HPM_P2
2022/11/10 00:01:05;;;;;;;1.98;1.15;;;;;;;;;;5005907;28;20026;-87
2022/11/10 00:03:31;;;;;;;5.00;1.65;;;;;;;;;;5011241;28;20045;-87
2022/11/10 00:06:00;;;;;;;10.68;1.88;;;;;;;;;;5002064;28;20094;-89
2022/11/10 00:08:25;;;;;;;1.88;1.27;;;;;;;;;;5004391;28;20018;-88
2022/11/10 00:10:57;;;;;;;2.90;1.30;;;;;;;;;;5010112;28;20030;-88
2022/11/10 00:13:33;;;;;;;10.02;1.98;;;;;;;;;;5010591;28;20049;-88
2022/11/10 00:18:44;;;;;;;7.10;1.98;;;;;;;;;;5002794;28;20030;-89
2022/11/10 00:21:11;;;;;;;2.92;1.40;;;;;;;;;;5006555;28;20018;-88
2022/11/10 00:23:37;;;;;;;7.43;1.50;;;;;;;;;;4998378;28;20053;-87
2022/11/10 00:26:09;;;;;;;2.45;1.50;;;;;;;;;;4997260;28;20084;-88
2022/11/10 00:28:34;;;;;;;3.80;1.60;;;;;;;;;;4998582;28;20049;-87
2022/11/10 00:31:05;;;;;;;5.55;1.77;;;;;;;;;;4998156;28;20031;-89
2022/11/10 00:33:30;;;;;;;4.30;1.45;;;;;;;;;;5001053;28;20030;-89
2022/11/10 00:35:59;;;;;;;2.70;1.40;;;;;;;;;;4998965;28;20026;-91
2022/11/10 00:38:24;;;;;;;8.40;1.27;;;;;;;;;;4992798;28;20019;-89
2022/11/10 00:40:49;;;;;;;5.32;2.00;;;;;;;;;;4983551;28;20106;-90
2022/11/10 00:43:15;;;;;;;7.50;1.83;;;;;;;;;;4998607;28;20023;-89
2022/11/10 00:45:45;;;;;;;5.13;1.42;;;;;;;;;;4983868;28;20248;-90
2022/11/10 00:48:10;;;;;;;5.07;1.33;;;;;;;;;;5000455;28;20030;-91
2022/11/10 00:50:36;;;;;;;5.50;1.75;;;;;;;;;;4999590;28;20075;-89
2022/11/10 00:53:02;;;;;;;2.95;1.33;;;;;;;;;;4995013;28;20031;-87
2022/11/10 00:55:27;;;;;;;7.40;1.67;;;;;;;;;;4983285;28;20027;-90
2022/11/10 00:57:52;;;;;;;4.78;1.70;;;;;;;;;;4985131;28;20026;-90
2022/11/10 01:00:18;;;;;;;4.93;1.33;;;;;;;;;;4985016;28;20052;-91
2022/11/10 01:02:43;;;;;;;13.15;2.03;;;;;;;;;;4980192;28;20030;-89
2022/11/10 01:05:09;;;;;;;2.90;1.73;;;;;;;;;;4992405;28;20026;-90
2022/11/10 01:07:34;;;;;;;7.07;1.80;;;;;;;;;;4981630;28;20042;-90
2022/11/10 01:10:00;;;;;;;8.75;1.95;;;;;;;;;;4981242;28;20022;-90
2022/11/10 01:12:29;;;;;;;3.40;1.70;;;;;;;;;;5000563;28;20076;-90
2022/11/10 01:14:55;;;;;;;2.97;1.60;;;;;;;;;;4985122;28;20118;-89
2022/11/10 01:17:20;;;;;;;8.75;1.90;;;;;;;;;;4994183;28;20105;-89
2022/11/10 01:19:46;;;;;;;1.42;1.33;;;;;;;;;;4985771;28;20030;-90
2022/11/10 01:22:11;;;;;;;2.80;1.65;;;;;;;;;;4977616;28;20034;-90
2022/11/10 01:24:37;;;;;;;6.57;1.95;;;;;;;;;;4978191;28;20788;-89
2022/11/10 01:27:02;;;;;;;7.82;1.80;;;;;;;;;;4973394;28;20027;-89
2022/11/10 01:29:27;;;;;;;7.18;2.13;;;;;;;;;;4978655;28;20034;-91
2022/11/10 01:31:53;;;;;;;5.25;1.70;;;;;;;;;;4988705;28;20066;-89
2022/11/10 01:34:18;;;;;;;3.85;1.75;;;;;;;;;;4999851;28;20050;-90
2022/11/10 01:36:44;;;;;;;6.13;2.05;;;;;;;;;;4992927;28;20030;-89
2022/11/10 01:39:09;;;;;;;1.83;1.40;;;;;;;;;;4978710;28;20689;-90
2022/11/10 01:41:35;;;;;;;2.03;1.65;;;;;;;;;;4980955;28;20023;-91
2022/11/10 01:44:14;;;;;;;7.80;1.60;;;;;;;;;;4983294;28;20501;-89
2022/11/10 01:46:40;;;;;;;2.33;1.20;;;;;;;;;;4997629;28;20049;-87
2022/11/10 01:49:05;;;;;;;7.30;1.58;;;;;;;;;;4981952;28;20717;-87
2022/11/10 01:51:37;;;;;;;9.60;2.08;;;;;;;;;;4996238;28;20109;-88
2022/11/10 01:54:06;;;;;;;8.70;2.17;;;;;;;;;;4997129;28;20030;-87
2022/11/10 01:56:37;;;;;;;4.95;1.83;;;;;;;;;;4982610;28;20031;-87
2022/11/10 01:59:09;;;;;;;12.02;2.13;;;;;;;;;;4982876;28;20066;-88
2022/11/10 02:01:35;;;;;;;5.53;2.15;;;;;;;;;;4982613;28;20026;-87
2022/11/10 02:04:07;;;;;;;5.43;1.65;;;;;;;;;;4981940;28;20037;-88
2022/11/10 02:06:34;;;;;;;;;;;;;;;;;;4999210;28;20567;-89
2022/11/10 02:08:59;;;;;;;9.10;1.70;;;;;;;;;;4996887;28;19929;-88
2022/11/10 02:11:27;;;;;;;5.22;1.98;;;;;;;;;;4983225;28;20027;-88
2022/11/10 02:13:53;;;;;;;5.70;2.00;;;;;;;;;;4985501;28;20057;-89
2022/11/10 02:16:19;;;;;;;4.97;1.98;;;;;;;;;;4997655;28;20480;-89
2022/11/10 02:18:45;;;;;;;6.63;2.10;;;;;;;;;;4984923;28;20492;-89
2022/11/10 02:21:10;;;;;;;4.55;1.83;;;;;;;;;;5001757;28;20594;-88
2022/11/10 02:23:35;;;;;;;7.30;2.13;;;;;;;;;;4986003;28;20500;-88
2022/11/10 02:26:03;;;;;;;9.82;2.28;;;;;;;;;;4983737;28;20037;-87
2022/11/10 02:28:33;;;;;;;5.28;1.92;;;;;;;;;;4987579;28;20011;-87
2022/11/10 02:30:58;;;;;;;4.82;1.98;;;;;;;;;;4987458;28;20037;-88
2022/11/10 02:33:24;;;;;;;9.48;2.28;;;;;;;;;;4986339;28;20034;-87
2022/11/10 02:35:52;;;;;;;8.38;1.83;;;;;;;;;;4990135;28;20106;-88
2022/11/10 02:38:17;;;;;;;8.15;1.92;;;;;;;;;;4980921;28;20485;-87
2022/11/10 02:40:42;;;;;;;2.80;1.70;;;;;;;;;;4979189;28;20034;-87
2022/11/10 02:43:11;;;;;;;7.28;1.85;;;;;;;;;;4980373;28;20031;-87
2022/11/10 02:45:42;;;;;;;5.05;1.92;;;;;;;;;;4981624;28;20045;-87
2022/11/10 02:48:09;;;;;;;5.75;1.70;;;;;;;;;;4982302;28;20054;-87
2022/11/10 02:50:34;;;;;;;4.28;1.77;;;;;;;;;;4982297;28;21363;-88
2022/11/10 02:53:00;;;;;;;10.02;3.22;;;;;;;;;;4979496;28;20054;-88
2022/11/10 02:55:26;;;;;;;5.72;2.03;;;;;;;;;;4996159;28;20062;-88
2022/11/10 02:57:51;;;;;;;5.13;2.20;;;;;;;;;;4980626;28;20113;-87
2022/11/10 03:00:17;;;;;;;4.75;1.70;;;;;;;;;;4979124;28;20121;-87
2022/11/10 03:02:44;;;;;;;7.13;1.90;;;;;;;;;;4983846;28;20070;-88
2022/11/10 03:05:10;;;;;;;2.38;1.65;;;;;;;;;;4988435;28;20154;-88
2022/11/10 03:07:35;;;;;;;8.90;2.42;;;;;;;;;;4982590;28;20399;-88
2022/11/10 03:10:01;;;;;;;6.20;2.30;;;;;;;;;;5000100;28;20046;-88
2022/11/10 03:12:27;;;;;;;9.30;1.98;;;;;;;;;;4997368;28;20122;-88
2022/11/10 03:14:52;;;;;;;3.22;1.70;;;;;;;;;;4985529;28;20121;-86
2022/11/10 03:17:18;;;;;;;5.75;2.05;;;;;;;;;;4983263;28;20716;-87
2022/11/10 03:19:43;;;;;;;14.40;2.20;;;;;;;;;;4997424;28;20035;-88
2022/11/10 03:22:08;;;;;;;2.55;1.67;;;;;;;;;;4981247;28;20578;-88
2022/11/10 03:24:34;;;;;;;5.60;2.10;;;;;;;;;;4990213;28;20032;-87
2022/11/10 03:26:59;;;;;;;3.42;1.80;;;;;;;;;;4984688;28;20181;-88
2022/11/10 03:29:25;;;;;;;8.95;1.90;;;;;;;;;;4984030;28;20018;-87
2022/11/10 03:31:50;;;;;;;6.53;2.28;;;;;;;;;;4982147;28;20392;-87
2022/11/10 03:34:15;;;;;;;4.82;1.65;;;;;;;;;;4983776;28;20022;-87
2022/11/10 03:36:41;;;;;;;4.28;2.00;;;;;;;;;;4985798;28;20061;-87
2022/11/10 03:39:06;;;;;;;8.75;2.13;;;;;;;;;;4982667;28;20014;-87
2022/11/10 03:41:31;;;;;;;5.95;2.20;;;;;;;;;;4989632;28;20026;-88
2022/11/10 03:43:57;;;;;;;3.33;2.28;;;;;;;;;;4990781;28;20026;-87
2022/11/10 03:46:23;;;;;;;6.38;2.30;;;;;;;;;;4990107;28;20033;-87
2022/11/10 03:48:48;;;;;;;2.20;2.00;;;;;;;;;;4993591;28;20026;-87
2022/11/10 03:51:13;;;;;;;4.38;1.83;;;;;;;;;;4993969;28;20134;-88
2022/11/10 03:53:39;;;;;;;6.10;2.08;;;;;;;;;;4990848;28;20501;-89
2022/11/10 03:56:05;;;;;;;3.47;1.80;;;;;;;;;;5009323;28;20023;-88
2022/11/10 03:58:31;;;;;;;6.55;2.13;;;;;;;;;;5000954;28;20030;-90
2022/11/10 04:00:56;;;;;;;4.78;2.17;;;;;;;;;;4999230;28;20034;-87
2022/11/10 04:03:22;;;;;;;8.13;2.42;;;;;;;;;;5000781;28;20373;-88
2022/11/10 04:15:40;;;;;;;6.38;2.15;;;;;;;;;;5010353;28;20045;-87
2022/11/10 04:16:46;;;;;;;3.22;2.00;;;;;;;;;;4983808;28;20117;-89
2022/11/10 04:19:11;;;;;;;9.23;2.28;;;;;;;;;;4984112;28;20536;-88
2022/11/10 04:21:37;;;;;;;9.50;2.20;;;;;;;;;;4982657;28;20145;-88
2022/11/10 04:24:02;;;;;;;4.97;2.22;;;;;;;;;;4982629;28;20540;-87
2022/11/10 04:26:28;;;;;;;9.40;2.15;;;;;;;;;;4989575;28;20530;-89
2022/11/10 04:28:56;;;;;;;7.75;2.10;;;;;;;;;;5001178;28;20038;-88
2022/11/10 04:31:22;;;;;;;2.95;1.83;;;;;;;;;;4981905;28;20026;-88
2022/11/10 04:33:48;;;;;;;7.88;2.25;;;;;;;;;;4991311;28;20022;-88
2022/11/10 04:36:17;;;;;;;5.68;2.03;;;;;;;;;;4990196;28;20034;-88
2022/11/10 04:38:43;;;;;;;3.63;2.30;;;;;;;;;;4980626;28;20015;-88
2022/11/10 04:41:08;;;;;;;2.75;1.70;;;;;;;;;;4980552;28;20089;-87
2022/11/10 04:43:34;;;;;;;6.95;2.83;;;;;;;;;;4984244;28;20037;-89
2022/11/10 04:46:00;;;;;;;7.40;2.78;;;;;;;;;;4981747;28;20037;-88
2022/11/10 04:48:26;;;;;;;10.48;2.63;;;;;;;;;;4983459;28;20026;-88
2022/11/10 04:50:52;;;;;;;2.92;1.83;;;;;;;;;;4986274;28;20051;-87
2022/11/10 04:53:18;;;;;;;6.20;2.20;;;;;;;;;;4981645;28;20105;-88
2022/11/10 04:55:44;;;;;;;4.03;1.80;;;;;;;;;;4985777;28;20085;-88
2022/11/10 04:58:11;;;;;;;2.15;1.98;;;;;;;;;;4981794;28;20488;-88
2022/11/10 05:00:37;;;;;;;7.20;2.67;;;;;;;;;;4982272;28;20038;-88
2022/11/10 05:03:05;;;;;;;3.92;2.17;;;;;;;;;;4980810;28;20046;-87
2022/11/10 05:05:31;;;;;;;4.38;2.28;;;;;;;;;;4983888;28;20113;-87
2022/11/10 05:07:56;;;;;;;5.43;2.47;;;;;;;;;;4988020;28;20105;-87
2022/11/10 05:10:22;;;;;;;15.93;2.40;;;;;;;;;;4992047;28;20495;-87
2022/11/10 05:12:48;;;;;;;11.02;2.92;;;;;;;;;;4991874;28;20026;-87
2022/11/10 05:15:13;;;;;;;5.25;2.28;;;;;;;;;;4995516;28;20030;-87
2022/11/10 05:17:38;;;;;;;10.35;2.42;;;;;;;;;;4997686;28;20030;-87
2022/11/10 05:20:05;;;;;;;4.80;2.38;;;;;;;;;;5009978;28;20022;-87
2022/11/10 05:22:30;;;;;;;4.53;1.85;;;;;;;;;;4996525;28;20046;-88
2022/11/10 05:24:56;;;;;;;5.68;2.03;;;;;;;;;;4995204;28;20026;-87
2022/11/10 05:27:21;;;;;;;5.25;2.30;;;;;;;;;;4999157;28;20038;-88
2022/11/10 05:29:47;;;;;;;5.93;2.20;;;;;;;;;;5003935;28;20034;-88
2022/11/10 05:32:12;;;;;;;6.78;2.10;;;;;;;;;;5003974;28;20030;-88
2022/11/10 05:34:37;;;;;;;11.68;2.17;;;;;;;;;;4997245;28;20022;-87
2022/11/10 05:37:03;;;;;;;4.72;2.22;;;;;;;;;;4992489;28;20038;-88
2022/11/10 05:39:28;;;;;;;6.35;2.00;;;;;;;;;;4991202;28;20086;-88
2022/11/10 05:41:53;;;;;;;8.07;2.10;;;;;;;;;;4988546;28;20026;-86
2022/11/10 05:44:19;;;;;;;3.33;2.30;;;;;;;;;;4988295;28;20034;-88
2022/11/10 05:46:44;;;;;;;8.98;2.65;;;;;;;;;;4988343;28;20041;-88
2022/11/10 05:49:10;;;;;;;9.20;2.90;;;;;;;;;;4987748;28;20034;-88
2022/11/10 05:51:35;;;;;;;3.63;2.47;;;;;;;;;;4984145;28;20064;-88
2022/11/10 05:54:00;;;;;;;2.88;2.33;;;;;;;;;;4982653;28;20034;-88
2022/11/10 05:56:26;;;;;;;6.13;2.05;;;;;;;;;;4987118;28;20126;-88
2022/11/10 05:58:51;;;;;;;6.97;2.88;;;;;;;;;;5005205;28;20030;-88
2022/11/10 06:01:16;;;;;;;4.93;1.95;;;;;;;;;;4989343;28;20033;-88
2022/11/10 06:03:42;;;;;;;5.10;1.88;;;;;;;;;;4992338;28;20034;-87
2022/11/10 06:06:07;;;;;;;8.38;2.30;;;;;;;;;;4993546;28;20511;-88
2022/11/10 06:08:33;;;;;;;3.88;2.25;;;;;;;;;;4993410;28;20022;-85
2022/11/10 06:10:58;;;;;;;3.72;2.05;;;;;;;;;;4981718;28;20150;-87
2022/11/10 06:13:24;;;;;;;8.32;2.13;;;;;;;;;;4997401;28;20026;-85
2022/11/10 06:15:49;;;;;;;5.07;1.75;;;;;;;;;;4980578;28;20037;-88
2022/11/10 06:18:15;;;;;;;3.38;2.00;;;;;;;;;;4985339;28;20599;-86
2022/11/10 06:20:40;;;;;;;4.35;1.80;;;;;;;;;;4984749;28;20026;-86
2022/11/10 06:23:09;;;;;;;7.10;2.40;;;;;;;;;;4983777;28;20188;-85
2022/11/10 06:25:36;;;;;;;4.65;2.08;;;;;;;;;;4983414;28;20037;-85
2022/11/10 06:28:02;;;;;;;4.90;2.17;;;;;;;;;;4985575;28;20392;-87
2022/11/10 06:30:29;;;;;;;5.05;1.90;;;;;;;;;;4985192;28;20073;-87
2022/11/10 06:32:54;;;;;;;5.55;2.10;;;;;;;;;;4998864;28;20073;-86
2022/11/10 06:35:21;;;;;;;5.18;1.85;;;;;;;;;;4980773;28;20545;-87
2022/11/10 06:37:59;;;;;;;4.20;2.13;;;;;;;;;;4999025;28;20015;-85
2022/11/10 06:40:24;;;;;;;4.40;2.17;;;;;;;;;;5007491;28;20526;-85
2022/11/10 06:42:49;;;;;;;8.55;2.00;;;;;;;;;;4982154;28;20094;-84
2022/11/10 06:45:15;;;;;;;4.90;2.03;;;;;;;;;;4990207;28;20420;-87
2022/11/10 06:47:40;;;;;;;8.00;2.35;;;;;;;;;;5002494;28;20057;-85
2022/11/10 06:50:06;;;;;;;4.03;2.45;;;;;;;;;;4996330;28;20388;-85
2022/11/10 06:52:31;;;;;;;4.25;1.73;;;;;;;;;;4995762;28;20392;-85
2022/11/10 06:54:58;;;;;;;2.83;1.75;;;;;;;;;;5009383;28;20055;-87
2022/11/10 06:57:23;;;;;;;4.57;1.98;;;;;;;;;;4996224;28;20088;-86
2022/11/10 06:59:48;;;;;;;11.02;2.20;;;;;;;;;;4995455;28;20026;-87
2022/11/10 07:02:14;;;;;;;3.83;2.10;;;;;;;;;;4985483;28;20159;-86
2022/11/10 07:04:41;;;;;;;2.97;1.90;;;;;;;;;;4983584;28;20027;-86
2022/11/10 07:07:07;;;;;;;6.55;2.40;;;;;;;;;;4998275;28;20704;-85
2022/11/10 07:09:32;;;;;;;3.58;2.05;;;;;;;;;;4997716;28;20050;-86
2022/11/10 07:11:58;;;;;;;7.63;2.28;;;;;;;;;;5011066;28;20065;-86
2022/11/10 07:14:23;;;;;;;5.88;1.92;;;;;;;;;;5014524;28;20023;-87
2022/11/10 07:16:48;;;;;;;4.22;1.90;;;;;;;;;;5002035;28;20022;-86
2022/11/10 07:19:14;;;;;;;6.97;1.98;;;;;;;;;;4994299;28;20041;-87
2022/11/10 07:21:41;;;;;;;5.18;1.48;;;;;;;;;;4993817;28;20026;-87
2022/11/10 07:24:06;;;;;;;7.25;1.70;;;;;;;;;;4997819;28;20029;-86
2022/11/10 07:26:32;;;;;;;5.88;1.60;;;;;;;;;;4990539;28;20031;-87
2022/11/10 07:28:57;;;;;;;6.10;1.80;;;;;;;;;;4989925;28;20033;-85
2022/11/10 07:31:22;;;;;;;1.98;1.45;;;;;;;;;;4981156;28;20057;-86
2022/11/10 07:33:48;;;;;;;7.22;1.60;;;;;;;;;;4989629;28;20057;-86
2022/11/10 07:36:13;;;;;;;8.38;1.73;;;;;;;;;;4997861;28;20087;-88
2022/11/10 07:38:39;;;;;;;8.10;1.70;;;;;;;;;;4998608;28;20064;-87
2022/11/10 07:41:04;;;;;;;6.25;1.95;;;;;;;;;;4978426;28;20078;-86
2022/11/10 07:43:29;;;;;;;6.15;1.50;;;;;;;;;;4977475;28;20031;-86
2022/11/10 07:45:55;;;;;;;4.10;1.50;;;;;;;;;;4979009;28;20536;-86
2022/11/10 07:48:20;;;;;;;7.35;2.00;;;;;;;;;;4980513;28;20508;-86
2022/11/10 07:50:45;;;;;;;2.70;1.48;;;;;;;;;;4979264;28;20027;-86
2022/11/10 07:53:14;;;;;;;10.85;2.22;;;;;;;;;;4979032;28;20029;-85
2022/11/10 07:55:41;;;;;;;4.68;1.38;;;;;;;;;;4980660;28;20037;-87
2022/11/10 07:58:07;;;;;;;2.90;1.60;;;;;;;;;;4995261;28;20023;-85
2022/11/10 08:00:34;;;;;;;6.32;1.75;;;;;;;;;;4978909;28;20037;-84
2022/11/10 08:03:09;;;;;;;4.32;1.88;;;;;;;;;;4980011;28;20046;-86
2022/11/10 08:05:35;;;;;;;5.97;2.10;;;;;;;;;;4995653;28;20037;-86
2022/11/10 08:08:00;;;;;;;4.07;1.67;;;;;;;;;;4991753;28;20109;-86
2022/11/10 08:10:27;;;;;;;4.93;2.08;;;;;;;;;;4987861;28;20062;-87
2022/11/10 08:12:57;;;;;;;3.42;2.00;;;;;;;;;;4995476;28;20031;-86
2022/11/10 08:15:25;;;;;;;4.05;1.60;;;;;;;;;;4982038;28;20125;-88
2022/11/10 08:17:50;;;;;;;4.05;1.20;;;;;;;;;;4979136;28;20400;-87
2022/11/10 08:20:16;;;;;;;3.47;1.75;;;;;;;;;;4989019;28;20037;-87
2022/11/10 08:22:42;;;;;;;3.13;1.35;;;;;;;;;;4997986;28;20022;-89
2022/11/10 08:25:09;;;;;;;5.70;1.90;;;;;;;;;;5001729;28;20038;-89
2022/11/10 08:27:34;;;;;;;4.47;1.50;;;;;;;;;;5012965;28;20019;-89
2022/11/10 08:29:59;;;;;;;5.57;1.70;;;;;;;;;;4984238;28;20026;-88
2022/11/10 08:32:25;;;;;;;1.25;1.00;;;;;;;;;;4997738;28;20412;-86
2022/11/10 08:34:51;;;;;;;3.83;1.20;;;;;;;;;;4984166;28;20035;-89
2022/11/10 08:37:16;;;;;;;2.13;1.05;;;;;;;;;;5004692;28;20484;-89
2022/11/10 08:39:42;;;;;;;2.67;1.42;;;;;;;;;;4996376;28;20080;-87
2022/11/10 08:42:07;;;;;;;4.85;1.85;;;;;;;;;;4998575;28;20030;-87
2022/11/10 08:44:32;;;;;;;2.70;1.17;;;;;;;;;;4995628;28;20030;-87
2022/11/10 08:46:58;;;;;;;3.70;1.33;;;;;;;;;;4996882;28;20105;-88
2022/11/10 08:49:23;;;;;;;10.30;1.90;;;;;;;;;;4995422;28;20027;-88
2022/11/10 08:51:49;;;;;;;2.33;1.60;;;;;;;;;;4995581;28;20018;-88
2022/11/10 08:54:14;;;;;;;4.78;1.55;;;;;;;;;;4996386;28;20109;-87
2022/11/10 08:56:39;;;;;;;2.45;1.25;;;;;;;;;;4994193;28;20037;-88
2022/11/10 08:59:05;;;;;;;2.10;1.27;;;;;;;;;;4994060;28;20030;-87
2022/11/10 09:01:30;;;;;;;4.97;1.35;;;;;;;;;;4992901;28;20030;-87
2022/11/10 09:03:56;;;;;;;4.28;1.27;;;;;;;;;;4988898;28;20031;-88
2022/11/10 09:06:21;;;;;;;4.07;1.30;;;;;;;;;;4982821;28;20074;-86
2022/11/10 09:08:46;;;;;;;4.80;1.52;;;;;;;;;;4982830;28;20023;-87
2022/11/10 09:11:12;;;;;;;3.10;1.33;;;;;;;;;;4985563;28;20034;-88
2022/11/10 09:13:37;;;;;;;2.15;1.40;;;;;;;;;;4984835;28;20026;-88
2022/11/10 09:16:04;;;;;;;4.45;1.60;;;;;;;;;;4999694;28;20030;-85
2022/11/10 09:18:30;;;;;;;3.42;1.73;;;;;;;;;;4998218;28;20018;-85
2022/11/10 09:20:55;;;;;;;6.78;1.45;;;;;;;;;;4979384;28;20050;-86
2022/11/10 09:23:23;;;;;;;3.75;1.58;;;;;;;;;;4992318;28;20034;-87
2022/11/10 09:25:51;;;;;;;5.60;1.45;;;;;;;;;;4988478;28;20027;-88
2022/11/10 09:28:17;;;;;;;1.63;1.02;;;;;;;;;;4989710;28;20006;-87
2022/11/10 09:30:48;;;;;;;4.43;1.17;;;;;;;;;;5003721;28;20030;-88
2022/11/10 09:33:14;;;;;;;1.10;0.88;;;;;;;;;;4983149;28;20026;-88
2022/11/10 09:35:40;;;;;;;1.52;0.80;;;;;;;;;;4984788;28;20049;-86
2022/11/10 09:38:05;;;;;;;4.20;1.05;;;;;;;;;;4995427;28;20026;-86
2022/11/10 09:40:55;;;;;;;3.42;0.98;;;;;;;;;;5003135;28;20026;-87
2022/11/10 09:43:30;;;;;;;8.13;1.35;;;;;;;;;;5016565;28;20064;-86
2022/11/10 09:45:59;;;;;;;3.00;1.27;;;;;;;;;;4999977;28;20034;-87
2022/11/10 09:48:28;;;;;;;2.50;0.85;;;;;;;;;;4999330;28;20026;-85
2022/11/10 09:51:10;;;;;;;2.28;0.98;;;;;;;;;;4997759;28;20065;-89
2022/11/10 09:53:43;;;;;;;2.10;0.82;;;;;;;;;;4996452;28;20789;-88
2022/11/10 09:56:18;;;;;;;2.83;0.85;;;;;;;;;;4998096;28;20377;-85
2022/11/10 09:58:45;;;;;;;1.85;0.80;;;;;;;;;;4999667;28;20037;-87
2022/11/10 10:01:14;;;;;;;7.05;0.90;;;;;;;;;;5003990;28;20086;-88
2022/11/10 10:03:47;;;;;;;2.72;1.20;;;;;;;;;;5004687;28;20037;-86
2022/11/10 10:06:15;;;;;;;4.18;0.93;;;;;;;;;;5002558;28;20547;-87
2022/11/10 10:08:58;;;;;;;3.22;0.70;;;;;;;;;;5003830;28;20038;-86
2022/11/10 10:11:31;;;;;;;5.50;1.10;;;;;;;;;;5005847;28;20089;-87
2022/11/10 10:14:10;;;;;;;1.50;0.65;;;;;;;;;;5021089;28;20018;-91
2022/11/10 10:17:13;;;;;;;5.05;1.52;;;;;;;;;;5025587;28;20018;-88
2022/11/10 10:20:04;;;;;;;1.30;0.85;;;;;;;;;;5033514;28;20034;-88
2022/11/10 10:22:32;;;;;;;1.85;1.02;;;;;;;;;;5022568;28;20090;-86
2022/11/10 10:25:02;;;;;;;4.60;1.05;;;;;;;;;;5000482;28;20022;-87
2022/11/10 10:27:30;;;;;;;6.38;0.80;;;;;;;;;;4999560;28;20034;-89
2022/11/10 10:29:56;;;;;;;6.18;1.48;;;;;;;;;;4999681;28;20022;-88
2022/11/10 10:32:21;;;;;;;1.35;0.60;;;;;;;;;;5000526;28;20028;-88
2022/11/10 10:34:46;;;;;;;3.17;0.98;;;;;;;;;;4999704;28;20117;-87
2022/11/10 10:37:20;;;;;;;2.53;0.70;;;;;;;;;;5000653;28;20489;-88
2022/11/10 10:39:49;;;;;;;0.95;0.80;;;;;;;;;;5000585;28;20022;-88
2022/11/10 10:42:35;;;;;;;5.95;1.00;;;;;;;;;;5000637;28;20033;-88
2022/11/10 10:45:22;;;;;;;2.45;0.70;;;;;;;;;;5000372;28;20025;-88
2022/11/10 10:47:50;;;;;;;3.72;0.90;;;;;;;;;;5000062;28;20037;-87
2022/11/10 10:50:28;;;;;;;4.10;1.55;;;;;;;;;;5002056;28;20018;-88
2022/11/10 10:53:21;;;;;;;0.82;0.77;;;;;;;;;;5002066;28;20170;-87
2022/11/10 10:56:15;;;;;;;4.13;0.93;;;;;;;;;;4999265;28;20034;-87
2022/11/10 10:58:55;;;;;;;2.90;0.95;;;;;;;;;;5007781;28;20026;-88
2022/11/10 11:01:42;;;;;;;4.20;0.90;;;;;;;;;;5001213;28;20030;-88
2022/11/10 11:04:34;;;;;;;5.28;1.30;;;;;;;;;;5001948;28;20048;-87
2022/11/10 11:07:05;;;;;;;1.63;1.10;;;;;;;;;;4998061;28;20038;-89
2022/11/10 11:09:49;;;;;;;3.50;1.00;;;;;;;;;;5002510;28;20120;-87
2022/11/10 11:12:19;;;;;;;4.80;1.02;;;;;;;;;;5000905;28;20042;-89
2022/11/10 11:14:44;;;;;;;3.08;0.85;;;;;;;;;;5002441;28;20057;-87
2022/11/10 11:17:18;;;;;;;2.05;1.10;;;;;;;;;;5003905;28;20018;-88
2022/11/10 11:19:43;;;;;;;3.97;1.23;;;;;;;;;;5005106;28;20038;-88
2022/11/10 11:22:24;;;;;;;2.33;1.13;;;;;;;;;;5004579;28;20026;-88
2022/11/10 11:24:58;;;;;;;5.93;1.13;;;;;;;;;;5024944;28;20165;-88
2022/11/10 11:27:42;;;;;;;1.67;0.93;;;;;;;;;;5008856;28;20566;-89
2022/11/10 11:30:18;;;;;;;7.13;1.33;;;;;;;;;;5025493;28;20034;-89
2022/11/10 11:32:43;;;;;;;3.22;0.95;;;;;;;;;;5030598;28;20027;-90
2022/11/10 11:35:42;;;;;;;2.63;1.27;;;;;;;;;;5016445;28;20030;-88
2022/11/10 11:38:22;;;;;;;1.80;1.02;;;;;;;;;;5008750;28;20461;-88
2022/11/10 11:40:50;;;;;;;2.85;0.90;;;;;;;;;;5022998;28;20026;-88
2022/11/10 11:43:35;;;;;;;3.17;1.00;;;;;;;;;;5007948;28;20032;-89
2022/11/10 11:46:11;;;;;;;3.25;0.95;;;;;;;;;;5026860;28;20489;-89
2022/11/10 11:48:51;;;;;;;3.28;0.82;;;;;;;;;;5005510;28;20022;-86
2022/11/10 11:51:19;;;;;;;3.15;1.05;;;;;;;;;;5000845;28;20030;-86
2022/11/10 11:54:22;;;;;;;2.30;1.10;;;;;;;;;;5002662;28;20573;-85
2022/11/10 11:56:49;;;;;;;5.30;0.95;;;;;;;;;;4990057;28;20101;-85
2022/11/10 11:59:40;;;;;;;3.20;0.73;;;;;;;;;;5000128;28;20037;-87
2022/11/10 12:02:43;;;;;;;1.00;0.80;;;;;;;;;;4994765;28;20113;-85
2022/11/10 12:05:27;;;;;;;2.03;0.80;;;;;;;;;;4987012;28;20027;-86
2022/11/10 12:08:11;;;;;;;5.93;1.20;;;;;;;;;;4995488;28;20030;-86
2022/11/10 12:10:45;;;;;;;1.20;0.90;;;;;;;;;;4993219;28;20030;-88
2022/11/10 12:13:37;;;;;;;3.97;0.90;;;;;;;;;;5012386;28;20030;-88
2022/11/10 12:16:20;;;;;;;5.37;1.00;;;;;;;;;;4993076;28;20052;-87
2022/11/10 12:18:54;;;;;;;6.05;1.02;;;;;;;;;;4999917;28;20033;-87
2022/11/10 12:21:44;;;;;;;5.15;0.98;;;;;;;;;;4997342;28;20480;-85
2022/11/10 12:24:24;;;;;;;1.45;0.85;;;;;;;;;;4997400;28;20014;-87
2022/11/10 12:27:07;;;;;;;3.65;0.85;;;;;;;;;;4994458;28;20018;-86
2022/11/10 12:29:44;;;;;;;2.65;0.70;;;;;;;;;;4995459;28;20027;-85
2022/11/10 12:32:15;;;;;;;2.72;0.77;;;;;;;;;;4997286;28;20056;-87
2022/11/10 12:34:46;;;;;;;3.53;0.90;;;;;;;;;;4996655;28;20400;-87
2022/11/10 12:37:35;;;;;;;1.92;0.88;;;;;;;;;;4997059;28;20369;-86
2022/11/10 12:40:08;;;;;;;2.67;0.85;;;;;;;;;;4989889;28;20051;-88
2022/11/10 12:42:37;;;;;;;1.90;0.60;;;;;;;;;;5008099;28;20566;-88
2022/11/10 12:45:06;;;;;;;1.90;0.77;;;;;;;;;;4992457;28;20035;-86
2022/11/10 12:47:43;;;;;;;2.35;0.80;;;;;;;;;;4993654;28;20034;-86
2022/11/10 12:50:14;;;;;;;2.47;0.68;;;;;;;;;;5004533;28;20027;-86
2022/11/10 12:52:51;;;;;;;2.45;0.77;;;;;;;;;;5003158;28;20492;-85
2022/11/10 12:55:19;;;;;;;1.30;0.90;;;;;;;;;;4990191;28;20030;-88
2022/11/10 12:57:45;;;;;;;2.47;0.57;;;;;;;;;;4992662;28;20653;-86
2022/11/10 13:00:22;;;;;;;2.45;0.95;;;;;;;;;;4990186;28;20025;-87
2022/11/10 13:02:49;;;;;;;3.50;0.90;;;;;;;;;;5010123;28;20034;-86
2022/11/10 13:05:36;;;;;;;4.53;0.95;;;;;;;;;;4991245;28;20030;-87
2022/11/10 13:08:18;;;;;;;2.67;0.90;;;;;;;;;;4988518;28;20050;-86
2022/11/10 13:10:51;;;;;;;1.92;0.90;;;;;;;;;;4995185;28;20035;-88
2022/11/10 13:13:17;;;;;;;4.70;1.08;;;;;;;;;;4998443;28;20076;-87
2022/11/10 13:15:42;;;;;;;5.72;0.70;;;;;;;;;;4994802;28;20039;-87
2022/11/10 13:18:09;;;;;;;4.25;1.30;;;;;;;;;;5007393;28;20022;-88
2022/11/10 13:20:44;;;;;;;3.00;0.73;;;;;;;;;;4999061;28;20023;-89
2022/11/10 13:23:28;;;;;;;4.90;1.00;;;;;;;;;;5011108;28;20029;-88
2022/11/10 13:26:08;;;;;;;1.92;1.10;;;;;;;;;;5012365;28;20037;-86
2022/11/10 13:28:46;;;;;;;3.55;1.10;;;;;;;;;;4995607;28;20153;-88
2022/11/10 13:31:26;;;;;;;1.85;0.70;;;;;;;;;;5000148;28;20485;-86
2022/11/10 13:34:22;;;;;;;1.80;0.75;;;;;;;;;;4998394;28;21457;-87
2022/11/10 13:36:48;;;;;;;1.88;0.90;;;;;;;;;;5007486;28;20042;-88
2022/11/10 13:39:18;;;;;;;4.53;1.02;;;;;;;;;;4992093;28;20081;-86
2022/11/10 13:41:58;;;;;;;1.60;0.70;;;;;;;;;;4990248;28;20107;-87
2022/11/10 13:44:40;;;;;;;3.83;0.80;;;;;;;;;;5010708;28;20049;-87
2022/11/10 13:47:09;;;;;;;1.98;0.73;;;;;;;;;;4994688;28;20427;-87
2022/11/10 13:49:53;;;;;;;3.58;1.33;;;;;;;;;;5009093;28;20117;-87
2022/11/10 13:52:43;;;;;;;1.63;0.80;;;;;;;;;;4995317;28;20034;-88
2022/11/10 13:55:26;;;;;;;2.70;1.00;;;;;;;;;;4993089;28;20362;-86
2022/11/10 13:58:10;;;;;;;4.22;0.88;;;;;;;;;;4998086;28;20022;-87
2022/11/10 14:00:36;;;;;;;5.30;1.13;;;;;;;;;;4996178;28;20433;-87
2022/11/10 14:03:03;;;;;;;2.13;1.23;;;;;;;;;;4994406;28;20066;-87
2022/11/10 14:05:29;;;;;;;1.75;0.80;;;;;;;;;;4990280;28;20026;-86
2022/11/10 14:08:16;;;;;;;1.27;0.80;;;;;;;;;;4983111;28;20027;-88
2022/11/10 14:10:58;;;;;;;5.60;0.77;;;;;;;;;;4981038;28;21265;-88
2022/11/10 14:13:32;;;;;;;2.67;0.87;;;;;;;;;;4979988;28;20042;-87
2022/11/10 14:16:16;;;;;;;1.92;0.90;;;;;;;;;;4979781;28;20026;-87
2022/11/10 14:18:49;;;;;;;3.80;0.88;;;;;;;;;;4979123;28;20049;-88
2022/11/10 14:21:29;;;;;;;2.28;0.85;;;;;;;;;;5004585;28;20030;-86
2022/11/10 14:24:13;;;;;;;1.10;0.47;;;;;;;;;;5012926;28;20034;-87
2022/11/10 14:27:06;;;;;;;3.35;1.08;;;;;;;;;;4992439;28;20022;-86
2022/11/10 14:29:32;;;;;;;1.63;0.85;;;;;;;;;;4992344;28;20038;-87
2022/11/10 14:32:04;;;;;;;2.72;1.23;;;;;;;;;;5008436;28;20109;-86
2022/11/10 14:34:32;;;;;;;3.42;0.68;;;;;;;;;;5011821;28;20041;-87
2022/11/10 14:37:00;;;;;;;1.70;0.70;;;;;;;;;;5005737;28;20041;-87
2022/11/10 14:39:34;;;;;;;1.25;0.60;;;;;;;;;;4998174;28;20445;-86
2022/11/10 14:42:02;;;;;;;2.88;0.68;;;;;;;;;;4979348;28;20034;-86
2022/11/10 14:44:29;;;;;;;1.85;0.60;;;;;;;;;;4984211;28;20038;-89
2022/11/10 14:46:56;;;;;;;5.85;1.05;;;;;;;;;;4986529;28;20030;-87
2022/11/10 14:49:25;;;;;;;3.05;0.77;;;;;;;;;;4991914;28;20038;-87
2022/11/10 14:51:55;;;;;;;1.70;0.70;;;;;;;;;;4976190;28;20088;-88
2022/11/10 14:54:25;;;;;;;1.05;0.52;;;;;;;;;;4996665;28;20098;-88
2022/11/10 14:56:55;;;;;;;1.20;0.80;;;;;;;;;;4997418;28;20038;-86
2022/11/10 14:59:26;;;;;;;7.88;1.15;;;;;;;;;;4997648;28;20025;-87
2022/11/10 15:01:57;;;;;;;4.53;1.00;;;;;;;;;;4995719;28;20038;-87
2022/11/10 15:04:30;;;;;;;10.10;1.55;;;;;;;;;;4986963;28;20292;-87
2022/11/10 15:06:57;;;;;;;4.05;0.82;;;;;;;;;;4989281;28;20030;-86
2022/11/10 15:09:29;;;;;;;5.78;1.27;;;;;;;;;;4977460;28;20023;-87